Data for 08/08/2014

Time Sea-Level Adjusted Pressure Absolute Pressure Temperature Relative Humidity Dew Point   
(mb) (inHg) (mb) (inHg) (C) (F) (%) (C) (F)
00:05 1020 30.12 849 25.07 17.2 63 50 6.7 44.1
00:10 1019 30.09 849 25.07 16.9 62.5 50 6.5 43.6
00:15 1019 30.09 849 25.07 16.7 62 52 6.7 44.1
00:20 1019 30.09 849 25.07 16.5 61.7 53 7 44.6
00:25 1019 30.09 849 25.07 16.2 61.2 54 7 44.6
00:30 1019 30.09 849 25.07 16.1 61 54 6.8 44.3
00:35 1019 30.09 849 25.07 16.1 61 53 6.6 43.8
00:40 1019 30.09 849 25.07 16.2 61.1 52 6.5 43.6
00:45 1019 30.09 849 25.07 16.3 61.3 53 6.8 44.2
00:50 1019 30.09 849 25.07 16.2 61.1 53 6.6 43.9
00:55 1019 30.09 849 25.07 16.2 61.1 52 6.3 43.4
01:00 1019 30.09 849 25.07 16.3 61.3 52 6.4 43.6
01:05 1019 30.09 849 25.07 16.3 61.3 52 6.6 43.8
01:10 1019 30.09 849 25.07 16 60.8 54 6.8 44.2
01:15 1019 30.09 848 25.04 16 60.8 54 6.9 44.5
01:20 1019 30.09 848 25.04 15.9 60.5 56 7.1 44.8
01:25 1019 30.09 849 25.07 15.6 60.1 55 6.8 44.2
01:30 1019 30.09 848 25.04 15.8 60.5 55 6.8 44.2
01:35 1019 30.09 848 25.04 15.9 60.7 54 6.8 44.2
01:40 1019 30.09 848 25.04 16 60.8 54 6.9 44.3
01:45 1019 30.09 848 25.04 16 60.8 54 6.7 44.1
01:50 1019 30.09 848 25.04 16 60.9 54 6.8 44.2
01:55 1019 30.09 848 25.04 15.9 60.6 56 7.1 44.8
02:00 1019 30.09 848 25.04 15.6 60 56 7.1 44.7
02:05 1019 30.09 848 25.04 15.3 59.5 58 7.2 45
02:10 1019 30.09 849 25.07 15 59 58 7 44.5
02:15 1019 30.09 849 25.07 15.1 59.1 58 7 44.6
02:20 1019 30.09 849 25.07 15.1 59.1 58 7 44.7
02:25 1019 30.09 849 25.07 15 59.1 59 7.1 44.8
02:30 1019 30.09 849 25.07 15.2 59.4 61 7.7 45.9
02:35 1019 30.09 849 25.07 15.3 59.6 57 7 44.7
02:40 1019 30.09 849 25.07 15.2 59.3 58 7 44.6
02:45 1019 30.09 848 25.04 15.3 59.5 57 6.8 44.3
02:50 1019 30.09 848 25.04 15.5 59.9 56 6.8 44.2
02:55 1019 30.09 848 25.04 15.7 60.2 56 6.9 44.5
03:00 1019 30.09 848 25.04 15.5 59.9 56 6.9 44.4
03:05 1019 30.09 848 25.04 15.5 59.9 58 7.4 45.3
03:10 1019 30.09 849 25.07 15.6 60.1 56 6.9 44.4
03:15 1019 30.09 849 25.07 15.4 59.7 57 7 44.6
03:20 1019 30.09 849 25.07 15.2 59.4 56 6.7 44
03:25 1019 30.09 849 25.07 15.3 59.6 57 6.9 44.4
03:30 1019 30.09 849 25.07 15.2 59.3 57 6.8 44.2
03:35 1019 30.09 849 25.07 15.1 59.1 56 6.5 43.7
03:40 1020 30.12 849 25.07 14.9 58.9 54 5.9 42.6
03:45 1020 30.12 849 25.07 15.4 59.6 51 5.3 41.6
03:50 1020 30.12 849 25.07 15.3 59.6 55 6.3 43.4
03:55 1020 30.12 849 25.07 15.1 59.2 56 6.4 43.6
04:00 1020 30.12 849 25.07 15.1 59.2 55 6.3 43.4
04:05 1020 30.12 849 25.07 15.1 59.2 55 6.2 43.2
04:10 1020 30.12 849 25.07 14.9 58.8 58 6.7 44
04:15 1020 30.12 849 25.07 14.3 57.8 60 6.7 44.1
04:20 1020 30.12 849 25.07 14.2 57.5 59 6.5 43.6
04:25 1020 30.12 849 25.07 14.3 57.7 59 6.6 43.9
04:30 1020 30.12 849 25.07 14.3 57.7 60 6.6 43.9
04:35 1020 30.12 849 25.07 14.2 57.6 60 6.8 44.2
04:40 1020 30.12 849 25.07 14 57.2 61 6.7 44.1
04:45 1020 30.12 849 25.07 13.7 56.7 62 6.7 44
04:50 1020 30.12 849 25.07 13.6 56.4 63 6.6 43.9
04:55 1020 30.12 849 25.07 13.6 56.5 61 6.4 43.5
05:00 1020 30.12 849 25.07 13.6 56.5 60 6.2 43.1
05:05 1020 30.12 849 25.07 13.6 56.4 60 5.9 42.7
05:10 1020 30.12 849 25.07 14 57.3 58 5.9 42.6
05:15 1020 30.12 849 25.07 14.4 57.8 58 6.2 43.1
05:20 1020 30.12 849 25.07 14.5 58.2 56 5.9 42.6
05:25 1020 30.12 849 25.07 14.6 58.2 57 6.1 43
05:30 1020 30.12 849 25.07 14.2 57.6 60 6.6 43.8
05:35 1020 30.12 849 25.07 13.9 57.1 61 6.7 44
05:40 1020 30.12 849 25.07 13.9 57 61 6.6 43.9
05:45 1020 30.12 849 25.07 14 57.3 61 6.8 44.2
05:50 1020 30.12 849 25.07 14 57.1 62 6.8 44.2
05:55 1020 30.12 849 25.07 13.8 56.9 62 6.6 43.9
06:00 1020 30.12 849 25.07 13.7 56.6 62 6.6 43.8
06:05 1020 30.12 849 25.07 13.8 56.8 62 6.7 44
06:10 1020 30.12 849 25.07 14 57.2 61 6.7 44.1
06:15 1020 30.12 849 25.07 14.3 57.7 60 6.7 44.1
06:20 1020 30.12 849 25.07 14.5 58.1 60 6.9 44.3
06:25 1020 30.12 849 25.07 14.6 58.2 59 6.8 44.3
06:30 1020 30.12 849 25.07 14.6 58.2 59 6.7 44
06:35 1020 30.12 849 25.07 14.6 58.3 58 6.6 43.9
06:40 1020 30.12 849 25.07 15 58.9 57 6.5 43.8
06:45 1020 30.12 849 25.07 15.3 59.6 56 6.6 43.9
06:50 1020 30.12 849 25.07 15.6 60 56 7 44.6
06:55 1020 30.12 849 25.07 15.5 60 56 7 44.6
07:00 1020 30.12 849 25.07 15.5 60 57 7.2 44.9
07:05 1020 30.12 849 25.07 15.6 60 56 7 44.6
07:10 1020 30.12 849 25.07 15.6 60.1 56 7.1 44.7
07:15 1020 30.12 849 25.07 15.7 60.3 57 7.2 45
07:20 1020 30.12 849 25.07 15.7 60.3 61 8.3 46.9
07:25 1020 30.12 849 25.07 15.8 60.5 57 7.4 45.4
07:30 1020 30.12 849 25.07 16 60.7 57 7.4 45.4
07:35 1020 30.12 849 25.07 15.9 60.7 54 6.6 43.9
07:40 1020 30.12 849 25.07 16.5 61.6 53 6.9 44.4
07:45 1020 30.12 849 25.07 17.2 63 49 6.5 43.7
07:50 1020 30.12 849 25.07 18.1 64.6 46 6.6 43.9
07:55 1020 30.12 849 25.07 18.7 65.6 46 6.9 44.4
08:00 1020 30.12 849 25.07 19.2 66.6 44 6.9 44.4
08:05 1020 30.12 849 25.07 19.8 67.6 42 6.7 44
08:10 1020 30.12 849 25.07 20.3 68.5 41 6.6 43.9
08:15 1020 30.12 849 25.07 20.6 69 40 6.8 44.2
08:20 1020 30.12 849 25.07 20.8 69.4 41 7.1 44.7
08:25 1020 30.12 849 25.07 20.5 69 40 6.7 44.1
08:30 1020 30.12 849 25.07 21 69.9 40 7 44.7
08:35 1020 30.12 849 25.07 21.4 70.6 41 7.6 45.8
08:40 1020 30.12 849 25.07 21.7 71 39 7.2 45
08:45 1020 30.12 849 25.07 21.3 70.3 41 7.6 45.7
08:50 1020 30.12 849 25.07 21.8 71.2 37 6.8 44.2
08:55 1020 30.12 849 25.07 22.3 72.1 37 7.2 45
09:00 1020 30.12 849 25.07 22.3 72.2 36 6.9 44.4
09:05 1020 30.12 849 25.07 22.8 73 36 7.1 44.7
09:10 1020 30.12 849 25.07 23 73.3 34 6.5 43.7
09:15 1020 30.12 849 25.07 22.8 73 35 6.6 43.8
09:20 1020 30.12 849 25.07 23.2 73.7 33 6.4 43.5
09:25 1020 30.12 849 25.07 23.8 74.8 33 6.6 43.9
09:30 1020 30.12 849 25.07 24.2 75.5 31 6.3 43.4
09:35 1020 30.12 849 25.07 24.3 75.8 30 6.1 42.9
09:40 1020 30.12 849 25.07 24.2 75.5 30 5.9 42.6
09:45 1020 30.12 849 25.07 24.5 76.1 31 6.4 43.6
09:50 1020 30.12 849 25.07 24.6 76.2 31 6.6 44
09:55 1020 30.12 849 25.07 24.5 76.2 32 6.8 44.3
10:00 1020 30.12 849 25.07 24.3 75.8 33 7 44.6
10:05 1020 30.12 849 25.07 24.3 75.7 33 7.2 44.9
10:10 1020 30.12 849 25.07 24.5 76 32 6.7 44.1
10:15 1020 30.12 849 25.07 25 77 31 7 44.6
10:20 1020 30.12 849 25.07 24.2 75.6 33 7.3 45.2
10:25 1020 30.12 849 25.07 23.8 74.9 32 6.5 43.8
10:30 1020 30.12 849 25.07 23.7 74.6 33 6.8 44.2
10:35 1020 30.12 849 25.07 24.5 76.1 33 7.6 45.6
10:40 1020 30.12 849 25.07 24.9 76.8 32 7.1 44.8
10:45 1020 30.12 849 25.07 25.2 77.3 31 7.2 45
10:50 1020 30.12 849 25.07 25.4 77.8 32 7.6 45.6
10:55 1020 30.12 849 25.07 24.7 76.4 32 7.1 44.7
11:00 1020 30.12 849 25.07 24.1 75.5 32 6.4 43.5
11:05 1020 30.12 849 25.07 24.7 76.5 32 7.1 44.7
11:10 1020 30.12 849 25.07 25 77 32 7.2 45
11:15 1020 30.12 849 25.07 24.6 76.2 31 6.6 43.8
11:20 1020 30.12 849 25.07 25.4 77.8 29 6.5 43.6
11:25 1020 30.12 849 25.07 25.8 78.5 29 6.9 44.4
11:30 1020 30.12 849 25.07 26.7 80 28 6.8 44.3
11:35 1020 30.12 849 25.07 26.4 79.5 29 7.4 45.3
11:40 1019 30.09 849 25.07 25.9 78.6 30 7 44.7
11:45 1019 30.09 849 25.07 26.3 79.4 29 7.3 45.2
11:50 1019 30.09 848 25.04 26.7 80 29 7.4 45.3
11:55 1019 30.09 848 25.04 26.7 80.1 29 7.4 45.3
12:00 1019 30.09 848 25.04 26.6 79.9 29 7.2 45
12:05 1019 30.09 848 25.04 26.5 79.7 29 7.2 45
12:10 1019 30.09 848 25.04 26.1 78.9 28 6.5 43.7
12:15 1019 30.09 848 25.04 26.5 79.8 27 6.5 43.7
12:20 1019 30.09 848 25.04 26.6 79.9 28 6.8 44.3
12:25 1019 30.09 848 25.04 26.4 79.5 29 7 44.6
12:30 1019 30.09 848 25.04 26.3 79.3 28 6.8 44.2
12:35 1019 30.09 848 25.04 26.7 80.1 28 6.8 44.2
12:40 1019 30.09 848 25.04 27.1 80.7 27 6.7 44
12:45 1019 30.09 848 25.04 27.4 81.2 26 6.3 43.4
12:50 1019 30.09 848 25.04 27.2 80.9 25 6 42.8
12:55 1019 30.09 848 25.04 27 80.6 26 6.3 43.3
13:00 1019 30.09 848 25.04 26.9 80.4 25 5.6 42.1
13:05 1019 30.09 848 25.04 26.6 79.9 27 6.2 43.2
13:10 1019 30.09 848 25.04 26.5 79.8 27 6.3 43.3
13:15 1019 30.09 848 25.04 26.9 80.4 26 5.8 42.4
13:20 1019 30.09 848 25.04 27.7 81.9 25 6.2 43.2
13:25 1019 30.09 848 25.04 27.3 81.2 27 6.9 44.5
13:30 1019 30.09 848 25.04 26.6 79.9 27 6.3 43.3
13:35 1019 30.09 848 25.04 26.3 79.3 27 5.8 42.5
13:40 1019 30.09 848 25.04 25.8 78.5 28 6.1 42.9
13:45 1019 30.09 848 25.04 25.5 77.9 27 5.6 42.1
13:50 1019 30.09 848 25.04 25.9 78.6 26 5.3 41.5
13:55 1019 30.09 848 25.04 26.2 79.1 26 5.3 41.5
14:00 1019 30.09 848 25.04 26.5 79.8 25 5.3 41.5
14:05 1019 30.09 848 25.04 26.6 79.8 26 5.5 41.9
14:10 1019 30.09 848 25.04 26.8 80.2 25 5.2 41.4
14:15 1019 30.09 848 25.04 26.7 80 26 5.9 42.6
14:20 1019 30.09 848 25.04 26.4 79.4 26 5.7 42.2
14:25 1019 30.09 848 25.04 26.1 78.9 26 5.3 41.6
14:30 1019 30.09 848 25.04 25.9 78.7 26 5.2 41.3
14:35 1019 30.09 848 25.04 25.7 78.3 27 5.6 42.1
14:40 1019 30.09 848 25.04 25.4 77.7 28 5.7 42.3
14:45 1019 30.09 848 25.04 25.4 77.8 27 5.1 41.2
14:50 1019 30.09 848 25.04 25.3 77.5 27 5 40.9
14:55 1019 30.09 848 25.04 25.2 77.4 27 5 40.9
15:00 1019 30.09 848 25.04 25.3 77.5 26 4.8 40.6
15:05 1019 30.09 848 25.04 25.3 77.6 26 4.7 40.5
15:10 1019 30.09 848 25.04 25.1 77.2 27 4.8 40.6
15:15 1019 30.09 848 25.04 24.6 76.3 29 5.5 42
15:20 1019 30.09 848 25.04 24 75.2 30 5.4 41.7
15:25 1019 30.09 848 25.04 23.6 74.4 30 5.3 41.5
15:30 1019 30.09 848 25.04 23.8 74.8 30 5.3 41.5
15:35 1019 30.09 848 25.04 23.8 74.8 32 6.3 43.3
15:40 1019 30.09 848 25.04 22.6 72.6 33 5.9 42.6
15:45 1019 30.09 848 25.04 22.3 72.2 34 6 42.8
15:50 1019 30.09 849 25.07 22.2 71.9 34 5.8 42.5
15:55 1019 30.09 849 25.07 22.4 72.3 35 6.4 43.6
16:00 1019 30.09 849 25.07 22.6 72.6 37 7.4 45.4
16:05 1020 30.12 849 25.07 22.7 72.9 33 5.7 42.2
16:10 1020 30.12 849 25.07 22.7 72.8 33 5.8 42.5
16:15 1020 30.12 849 25.07 22.5 72.4 34 5.8 42.5
16:20 1020 30.12 849 25.07 22.4 72.3 34 6 42.7
16:25 1020 30.12 849 25.07 21.8 71.2 41 8.2 46.8
16:30 1020 30.12 849 25.07 20.2 68.4 49 9.4 48.8
16:35 1020 30.12 849 25.07 19 66.3 55 9.9 49.9
16:40 1020 30.12 850 25.1 18.3 64.9 57 9.7 49.5
16:45 1020 30.12 850 25.1 17.6 63.6 59 9.5 49.1
16:50 1020 30.12 850 25.1 17.2 62.9 59 9.2 48.6
16:55 1020 30.12 850 25.1 17.1 62.7 59 9.1 48.4
17:00 1020 30.12 850 25.1 17.1 62.8 59 9.1 48.3
17:05 1020 30.12 850 25.1 17.2 62.9 57 8.7 47.7
17:10 1021 30.15 850 25.1 17.3 63.2 61 9.9 49.9
17:15 1021 30.15 850 25.1 16.6 61.8 64 9.8 49.6
17:20 1020 30.12 850 25.1 16.2 61.2 64 9.6 49.3
17:25 1020 30.12 850 25.1 16.1 61 67 10 50
17:30 1020 30.12 850 25.1 16 60.7 67 9.9 49.9
17:35 1020 30.12 849 25.07 15.9 60.6 66 9.5 49.2
17:40 1020 30.12 849 25.07 16 60.8 66 9.7 49.5
17:45 1020 30.12 849 25.07 15.9 60.6 68 10 50
17:50 1020 30.12 850 25.1 15.7 60.3 69 10.1 50.2
17:55 1020 30.12 849 25.07 15.6 60 69 10 50.1
18:00 1020 30.12 849 25.07 15.7 60.2 68 9.8 49.6
18:05 1020 30.12 849 25.07 15.7 60.3 67 9.7 49.5
18:10 1020 30.12 849 25.07 15.7 60.3 67 9.6 49.3
18:15 1020 30.12 849 25.07 15.8 60.4 66 9.4 48.9
18:20 1020 30.12 849 25.07 15.9 60.7 64 9.2 48.6
18:25 1020 30.12 849 25.07 16 60.8 63 9 48.3
18:30 1020 30.12 849 25.07 16.1 61.1 62 8.8 47.9
18:35 1020 30.12 849 25.07 16.2 61.2 61 8.8 47.8
18:40 1020 30.12 849 25.07 16.2 61.2 62 8.9 48.1
18:45 1020 30.12 849 25.07 16.1 61.1 62 9 48.1
18:50 1020 30.12 849 25.07 16.1 61 63 9.2 48.5
18:55 1020 30.12 849 25.07 16 60.8 64 9.3 48.8
19:00 1020 30.12 849 25.07 15.8 60.5 66 9.5 49
19:05 1020 30.12 849 25.07 15.8 60.4 65 9.3 48.7
19:10 1020 30.12 849 25.07 15.8 60.5 65 9.4 48.8
19:15 1020 30.12 850 25.1 15.8 60.5 65 9.3 48.8
19:20 1020 30.12 850 25.1 15.8 60.4 67 9.7 49.4
19:25 1020 30.12 850 25.1 15.7 60.3 67 9.6 49.2
19:30 1020 30.12 850 25.1 15.7 60.2 67 9.7 49.4
19:35 1020 30.12 850 25.1 15.6 60.1 67 9.5 49.1
19:40 1020 30.12 850 25.1 15.7 60.2 66 9.4 49
19:45 1020 30.12 850 25.1 15.7 60.3 66 9.4 49
19:50 1020 30.12 849 25.07 15.7 60.3 65 9.3 48.8
19:55 1020 30.12 849 25.07 15.8 60.4 66 9.5 49.1
20:00 1020 30.12 849 25.07 15.7 60.3 66 9.4 48.9
20:05 1020 30.12 849 25.07 15.7 60.3 65 9.2 48.6
20:10 1020 30.12 849 25.07 15.7 60.2 66 9.5 49.1
20:15 1020 30.12 849 25.07 15.5 59.9 68 9.7 49.4
20:20 1020 30.12 849 25.07 15.4 59.7 69 9.8 49.6
20:25 1020 30.12 849 25.07 15.3 59.6 69 9.7 49.5
20:30 1020 30.12 849 25.07 15.3 59.5 69 9.7 49.5
20:35 1020 30.12 850 25.1 15.3 59.5 69 9.6 49.3
20:40 1020 30.12 850 25.1 15.2 59.4 69 9.6 49.3
20:45 1021 30.15 850 25.1 15.1 59.1 71 9.9 49.7
20:50 1021 30.15 850 25.1 14.9 58.9 71 9.9 49.7
20:55 1021 30.15 850 25.1 14.9 58.9 70 9.5 49.2
21:00 1021 30.15 850 25.1 15.2 59.3 68 9.3 48.7
21:05 1021 30.15 850 25.1 15.4 59.6 66 9.2 48.6
21:10 1021 30.15 850 25.1 15.4 59.8 65 9 48.3
21:15 1021 30.15 850 25.1 15.5 59.8 66 9.1 48.4
21:20 1021 30.15 850 25.1 15.5 59.8 66 9.2 48.6
21:25 1021 30.15 851 25.13 15.5 60 68 9.7 49.5
21:30 1021 30.15 851 25.13 15.6 60 66 9.3 48.8
21:35 1021 30.15 851 25.13 15.4 59.8 67 9.3 48.8
21:40 1021 30.15 851 25.13 15.3 59.6 67 9.3 48.7
21:45 1021 30.15 851 25.13 15.3 59.5 67 9.2 48.6
21:50 1021 30.15 851 25.13 15.2 59.3 67 9.1 48.4
21:55 1021 30.15 851 25.13 15.3 59.6 64 8.5 47.4
22:00 1021 30.15 851 25.13 15.5 60 64 8.8 47.8
22:05 1021 30.15 851 25.13 15.4 59.7 66 9 48.2
22:10 1021 30.15 851 25.13 15.2 59.4 66 8.9 48
22:15 1021 30.15 851 25.13 15.1 59.2 66 8.9 48
22:20 1021 30.15 850 25.1 15.1 59.1 66 8.9 47.9
22:25 1021 30.15 850 25.1 15 59.1 66 8.9 48
22:30 1021 30.15 850 25.1 15 58.9 66 8.7 47.7
22:35 1021 30.15 850 25.1 14.9 58.9 67 8.9 48
22:40 1021 30.15 850 25.1 14.9 58.9 67 9 48.2
22:45 1021 30.15 850 25.1 14.8 58.6 66 8.6 47.5
22:50 1021 30.15 850 25.1 14.6 58.3 65 8.2 46.7
22:55 1021 30.15 850 25.1 14.6 58.3 66 8.4 47.2
23:00 1021 30.15 850 25.1 14.4 58 67 8.4 47
23:05 1021 30.15 850 25.1 14.3 57.7 66 8.1 46.6
23:10 1021 30.15 850 25.1 14.5 58 64 7.8 46.1
23:15 1021 30.15 850 25.1 14.7 58.5 64 8 46.3
23:20 1021 30.15 850 25.1 14.8 58.7 64 8.1 46.7
23:25 1021 30.15 850 25.1 14.8 58.6 63 8 46.4
23:30 1021 30.15 850 25.1 14.8 58.7 64 8.1 46.5
23:35 1021 30.15 850 25.1 14.9 58.7 63 8.1 46.5
23:40 1021 30.15 850 25.1 14.8 58.6 65 8.3 47
23:45 1021 30.15 850 25.1 14.6 58.2 67 8.5 47.4
23:50 1021 30.15 850 25.1 14.1 57.4 69 8.5 47.4
23:55 1021 30.15 850 25.1 13.9 56.9 69 8.3 47
24:00 1021 30.15 851 25.13 13.8 56.8 69 8.2 46.7